createdAt,value
2019-04-06T00:00:33.626Z,280.02
2019-04-06T00:02:02.344Z,280.02
2019-04-06T00:03:31.063Z,280.02
2019-04-06T00:04:59.787Z,280.02
2019-04-06T00:06:28.587Z,280.02
2019-04-06T00:07:58.184Z,280.09
2019-04-06T00:09:26.903Z,280.09
2019-04-06T00:10:55.622Z,280.09
2019-04-06T00:12:24.424Z,280.09
2019-04-06T00:13:53.142Z,280.09
2019-04-06T00:15:21.943Z,280.09
2019-04-06T00:16:50.664Z,280.09
2019-04-06T00:18:19.463Z,280.09
2019-04-06T00:19:49.143Z,280.09
2019-04-06T00:21:19.626Z,280.09
2019-04-06T00:22:48.503Z,280.09
2019-04-06T00:24:17.309Z,280.09
2019-04-06T00:25:46.429Z,280.15
2019-04-06T00:27:15.151Z,280.15
2019-04-06T00:28:43.862Z,280.09
2019-04-06T00:30:12.593Z,280.09
2019-04-06T00:31:42.223Z,280.09
2019-04-06T00:33:11.862Z,280.15
2019-04-06T00:34:41.545Z,280.15
2019-04-06T00:36:10.831Z,280.15
2019-04-06T00:37:39.548Z,280.15
2019-04-06T00:39:08.344Z,280.21
2019-04-06T00:40:37.224Z,280.21
2019-04-06T00:42:05.991Z,280.21
2019-04-06T00:43:35.308Z,280.21
2019-04-06T00:45:04.105Z,280.15
2019-04-06T00:46:33.230Z,280.21
2019-04-06T00:48:01.945Z,280.21
2019-04-06T00:49:30.661Z,280.21
2019-04-06T00:50:59.392Z,280.21
2019-04-06T00:52:28.184Z,280.21
2019-04-06T00:53:58.342Z,280.15
2019-04-06T00:55:27.145Z,280.21
2019-04-06T00:56:56.004Z,280.21
2019-04-06T00:58:24.740Z,280.21
2019-04-06T00:59:53.622Z,280.21
2019-04-06T01:01:22.346Z,280.21
2019-04-06T01:02:51.912Z,280.21
2019-04-06T01:04:21.474Z,280.21
2019-04-06T01:05:50.549Z,280.21
2019-04-06T01:07:23.133Z,280.21
2019-04-06T01:08:52.115Z,280.21
2019-04-06T01:10:20.902Z,280.21
2019-04-06T01:11:49.704Z,280.21
2019-04-06T01:13:18.587Z,280.21
2019-04-06T01:14:47.395Z,280.21
2019-04-06T01:16:16.103Z,280.21
2019-04-06T01:17:45.544Z,280.21
2019-04-06T01:19:14.264Z,280.21
2019-04-06T01:20:42.984Z,280.21
2019-04-06T01:22:11.705Z,280.21
2019-04-06T01:23:40.423Z,280.21
2019-04-06T01:25:09.148Z,280.21
2019-04-06T01:26:37.939Z,280.21
2019-04-06T01:28:06.742Z,280.21
2019-04-06T01:29:35.462Z,280.21
2019-04-06T01:31:04.346Z,280.21
2019-04-06T01:32:33.945Z,280.27
2019-04-06T01:34:02.663Z,280.27
2019-04-06T01:35:31.461Z,280.27
2019-04-06T01:37:00.181Z,280.21
2019-04-06T01:38:28.902Z,280.21
2019-04-06T01:39:57.704Z,280.27
2019-04-06T01:41:26.722Z,280.27
2019-04-06T01:42:55.626Z,280.27
2019-04-06T01:44:24.425Z,280.27
2019-04-06T01:45:53.142Z,280.27
2019-04-06T01:47:21.941Z,280.27
2019-04-06T01:48:50.818Z,280.27
2019-04-06T01:50:19.626Z,280.27
2019-04-06T01:51:48.585Z,280.27
2019-04-06T01:53:17.302Z,280.34
2019-04-06T01:54:46.901Z,280.27
2019-04-06T01:56:18.613Z,280.34
2019-04-06T01:57:48.355Z,280.27
2019-04-06T01:59:18.103Z,280.27
2019-04-06T02:00:46.825Z,280.27
2019-04-06T02:02:15.542Z,280.27
2019-04-06T02:03:44.347Z,280.27
2019-04-06T02:05:14.183Z,280.27
2019-04-06T02:06:42.984Z,280.27
2019-04-06T02:08:11.704Z,280.27
2019-04-06T02:09:40.429Z,280.27
2019-04-06T02:11:10.023Z,280.27
2019-04-06T02:12:38.811Z,280.27
2019-04-06T02:14:07.710Z,280.27
2019-04-06T02:15:36.505Z,280.27
2019-04-06T02:17:06.105Z,280.27
2019-04-06T02:18:34.902Z,280.27
2019-04-06T02:20:03.658Z,280.27
2019-04-06T02:21:34.666Z,280.34
2019-04-06T02:23:03.520Z,280.34
2019-04-06T02:24:33.308Z,280.34
2019-04-06T02:26:02.023Z,280.34
2019-04-06T02:27:30.744Z,280.34
2019-04-06T02:28:59.703Z,280.34
2019-04-06T02:30:28.502Z,280.34
2019-04-06T02:31:58.030Z,280.34
2019-04-06T02:33:27.387Z,280.34
2019-04-06T02:34:57.151Z,280.34
2019-04-06T02:36:25.956Z,280.34
2019-04-06T02:37:54.747Z,280.34
2019-04-06T02:39:24.029Z,280.34
2019-04-06T02:40:52.911Z,280.34
2019-04-06T02:42:21.628Z,280.34
2019-04-06T02:43:51.597Z,280.4
2019-04-06T02:45:20.374Z,280.34
2019-04-06T02:46:49.071Z,280.34
2019-04-06T02:48:17.874Z,280.34
2019-04-06T02:49:46.756Z,280.34
2019-04-06T02:51:16.436Z,280.34
2019-04-06T02:52:47.149Z,280.34
2019-04-06T02:54:17.071Z,280.34
2019-04-06T02:55:46.030Z,280.34
2019-04-06T02:57:15.791Z,280.34
2019-04-06T02:58:45.793Z,280.34
2019-04-06T03:00:14.831Z,280.34
2019-04-06T03:01:44.512Z,280.4
2019-04-06T03:03:14.426Z,280.34
2019-04-06T03:04:43.311Z,280.34
2019-04-06T03:06:12.110Z,280.34
2019-04-06T03:07:41.073Z,280.34
2019-04-06T03:09:11.598Z,280.34
2019-04-06T03:10:41.551Z,280.34
2019-04-06T03:12:12.270Z,280.34
2019-04-06T03:13:41.038Z,280.34
2019-04-06T03:15:09.871Z,280.34
2019-04-06T03:16:38.764Z,280.34
2019-04-06T03:18:07.470Z,280.34
2019-04-06T03:19:36.431Z,280.34
2019-04-06T03:21:05.472Z,280.34
2019-04-06T03:22:34.431Z,280.27
2019-04-06T03:24:04.037Z,280.27
2019-04-06T03:25:33.159Z,280.27
2019-04-06T03:27:02.749Z,280.27
2019-04-06T03:28:31.887Z,280.27
2019-04-06T03:30:00.597Z,280.27
2019-04-06T03:31:29.714Z,280.27
2019-04-06T03:32:58.801Z,280.27
2019-04-06T03:34:28.278Z,280.27
2019-04-06T03:35:57.776Z,280.27
2019-04-06T03:37:28.039Z,280.27
2019-04-06T03:38:57.913Z,280.27
2019-04-06T03:40:26.831Z,280.27
2019-04-06T03:41:55.626Z,280.27
2019-04-06T03:43:24.511Z,280.27
2019-04-06T03:44:53.714Z,280.27
2019-04-06T03:46:23.311Z,280.27
2019-04-06T03:47:52.267Z,280.27
2019-04-06T03:49:20.989Z,280.27
2019-04-06T03:50:51.625Z,280.27
2019-04-06T03:52:20.590Z,280.27
2019-04-06T03:53:51.629Z,280.27
2019-04-06T03:55:21.464Z,280.21
2019-04-06T03:56:50.184Z,280.21
2019-04-06T04:03:46.258Z,280.21
2019-04-06T04:05:15.121Z,280.21
2019-04-06T04:06:43.942Z,280.27
2019-04-06T04:08:13.144Z,280.21
2019-04-06T04:09:41.940Z,280.21
2019-04-06T04:11:10.746Z,280.21
2019-04-06T04:12:40.144Z,280.15
2019-04-06T04:14:09.575Z,280.15
2019-04-06T04:15:38.340Z,280.15
2019-04-06T04:17:07.298Z,280.15
2019-04-06T04:18:36.179Z,280.15
2019-04-06T04:20:05.223Z,280.15
2019-04-06T04:21:33.964Z,280.15
2019-04-06T04:23:02.819Z,280.15
2019-04-06T04:24:33.065Z,280.15
2019-04-06T04:26:02.983Z,280.21
2019-04-06T04:27:31.704Z,280.15
2019-04-06T04:29:00.501Z,280.15
2019-04-06T04:30:32.719Z,280.21
2019-04-06T04:32:02.740Z,280.15
2019-04-06T04:33:31.780Z,280.15
2019-04-06T04:35:00.783Z,280.15
2019-04-06T04:36:29.621Z,280.15
2019-04-06T04:37:58.362Z,280.15
2019-04-06T04:39:29.213Z,280.15
2019-04-06T04:40:58.822Z,280.15
2019-04-06T04:42:27.981Z,280.15
2019-04-06T04:43:56.667Z,280.15
2019-04-06T04:45:26.102Z,280.15
2019-04-06T04:46:55.129Z,280.15
2019-04-06T04:48:24.023Z,280.15
2019-04-06T04:49:53.222Z,280.15
2019-04-06T04:51:22.190Z,280.15
2019-04-06T04:52:51.221Z,280.15
2019-04-06T04:54:20.221Z,280.15
2019-04-06T04:55:48.896Z,280.09
2019-04-06T04:57:18.496Z,280.09
2019-04-06T04:58:47.220Z,280.09
2019-04-06T05:00:16.022Z,280.09
2019-04-06T05:01:44.965Z,280.09
2019-04-06T05:03:13.697Z,280.09
2019-04-06T05:04:43.297Z,280.15
2019-04-06T05:06:12.404Z,280.15
2019-04-06T05:07:41.223Z,280.15
2019-04-06T05:09:10.263Z,280.15
2019-04-06T05:10:39.735Z,280.15
2019-04-06T05:12:08.583Z,280.15
2019-04-06T05:13:38.257Z,280.15
2019-04-06T05:15:09.037Z,280.15
2019-04-06T05:16:37.865Z,280.15
2019-04-06T05:18:07.457Z,280.15
2019-04-06T05:19:36.179Z,280.15
2019-04-06T05:21:06.417Z,280.15
2019-04-06T05:22:35.386Z,280.15
2019-04-06T05:24:04.197Z,280.15
2019-04-06T05:25:33.129Z,280.15
2019-04-06T05:27:02.261Z,280.15
2019-04-06T05:28:31.860Z,280.15
2019-04-06T05:30:00.948Z,280.15
2019-04-06T05:31:30.223Z,280.15
2019-04-06T05:32:59.057Z,280.15
2019-04-06T05:34:28.737Z,280.15
2019-04-06T05:35:58.485Z,280.21
2019-04-06T05:37:27.308Z,280.15
2019-04-06T05:38:56.585Z,280.15
2019-04-06T05:40:25.306Z,280.15
2019-04-06T05:41:54.021Z,280.21
2019-04-06T05:43:22.903Z,280.21
2019-04-06T05:44:51.630Z,280.15
2019-04-06T05:46:20.342Z,280.15
2019-04-06T05:47:49.300Z,280.21
2019-04-06T05:49:18.019Z,280.15
2019-04-06T05:50:46.822Z,280.15
2019-04-06T05:52:15.703Z,280.21
2019-04-06T05:53:44.452Z,280.21
2019-04-06T05:55:13.220Z,280.21
2019-04-06T05:56:42.104Z,280.21
2019-04-06T05:58:11.120Z,280.21
2019-04-06T05:59:41.086Z,280.21
2019-04-06T06:01:11.352Z,280.21
2019-04-06T06:02:41.251Z,280.21
2019-04-06T06:04:10.713Z,280.27
2019-04-06T06:05:41.129Z,280.34
2019-04-06T06:07:10.995Z,280.27
2019-04-06T06:08:39.702Z,280.27
2019-04-06T06:10:08.423Z,280.27
2019-04-06T06:11:38.110Z,280.27
2019-04-06T06:13:06.822Z,280.27
2019-04-06T06:14:35.624Z,280.34
2019-04-06T06:16:05.704Z,280.34
2019-04-06T06:17:36.508Z,280.34
2019-04-06T06:19:05.944Z,280.4
2019-04-06T06:20:34.742Z,280.34
2019-04-06T06:22:03.543Z,280.27
2019-04-06T06:23:32.341Z,280.34
2019-04-06T06:25:01.068Z,280.34
2019-04-06T06:26:30.259Z,280.4
2019-04-06T06:27:59.863Z,280.4
2019-04-06T06:29:39.546Z,280.4
2019-04-06T06:31:09.623Z,280.4
2019-04-06T06:32:39.789Z,280.46
2019-04-06T06:34:08.507Z,280.46
2019-04-06T06:35:38.519Z,280.46
2019-04-06T06:37:07.302Z,280.46
2019-04-06T06:38:36.099Z,280.46
2019-04-06T06:40:05.545Z,280.46
2019-04-06T06:41:36.823Z,280.46
2019-04-06T06:43:06.875Z,280.46
2019-04-06T06:44:35.704Z,280.52
2019-04-06T06:46:04.749Z,280.52
2019-04-06T06:47:33.780Z,280.52
2019-04-06T06:49:02.674Z,280.52
2019-04-06T06:50:31.620Z,280.52
2019-04-06T06:52:00.359Z,280.59
2019-04-06T06:53:29.143Z,280.59
2019-04-06T06:54:59.350Z,280.59
2019-04-06T06:56:28.109Z,280.65
2019-04-06T06:57:57.142Z,280.65
2019-04-06T06:59:27.079Z,280.65
2019-04-06T07:00:56.148Z,280.71
2019-04-06T07:02:30.110Z,280.71
2019-04-06T07:03:59.461Z,280.77
2019-04-06T07:05:28.419Z,280.77
2019-04-06T07:06:58.022Z,280.84
2019-04-06T07:08:26.822Z,280.84
2019-04-06T07:10:04.365Z,280.84
2019-04-06T07:11:34.101Z,280.84
2019-04-06T07:13:03.703Z,280.77
2019-04-06T07:14:32.422Z,280.77
2019-04-06T07:16:01.702Z,280.84
2019-04-06T07:17:30.499Z,280.9
2019-04-06T07:19:01.387Z,280.96
2019-04-06T07:20:30.103Z,281.02
2019-04-06T07:21:59.032Z,281.02
2019-04-06T07:23:27.789Z,281.09
2019-04-06T07:24:56.831Z,281.09
2019-04-06T07:26:26.822Z,281.02
2019-04-06T07:27:55.563Z,281.02
2019-04-06T07:29:24.590Z,281.09
2019-04-06T07:30:53.300Z,281.09
2019-04-06T07:32:22.580Z,281.09
2019-04-06T08:49:20.165Z,284.09
2019-04-06T08:50:49.170Z,284.09
2019-04-06T08:52:18.011Z,283.96
2019-04-06T08:53:47.106Z,284.02
2019-04-06T08:55:16.893Z,284.21
2019-04-06T08:56:46.652Z,284.27
2019-04-06T08:58:16.746Z,284.4
2019-04-06T08:59:46.942Z,284.52
2019-04-06T09:01:15.890Z,284.46
2019-04-06T09:02:45.204Z,284.34
2019-04-06T09:04:14.018Z,284.46
2019-04-06T09:05:43.703Z,284.52
2019-04-06T09:07:13.691Z,284.65
2019-04-06T09:08:42.414Z,284.77
2019-04-06T09:10:11.134Z,284.77
2019-04-06T09:11:39.932Z,284.84
2019-04-06T09:13:10.251Z,284.96
2019-04-06T09:14:39.133Z,284.9
2019-04-06T09:16:08.012Z,284.9
2019-04-06T09:17:38.568Z,284.84
2019-04-06T09:19:07.291Z,284.9
2019-04-06T09:20:38.650Z,284.96
2019-04-06T09:22:07.849Z,285.02
2019-04-06T09:23:37.370Z,285.09
2019-04-06T09:25:06.417Z,285.09
2019-04-06T09:26:36.012Z,285.15
2019-04-06T09:28:05.050Z,285.15
2019-04-06T09:29:33.770Z,285.09
2019-04-06T09:31:02.650Z,285.15
2019-04-06T09:32:32.330Z,285.21
2019-04-06T09:34:02.445Z,285.27
2019-04-06T09:35:31.211Z,285.27
2019-04-06T09:37:00.013Z,285.4
2019-04-06T09:38:29.051Z,285.46
2019-04-06T09:39:58.074Z,285.46
2019-04-06T09:41:27.691Z,285.52
2019-04-06T09:42:56.487Z,285.59
2019-04-06T09:44:25.291Z,285.59
2019-04-06T09:45:54.091Z,285.65
2019-04-06T09:47:23.130Z,285.65
2019-04-06T09:48:53.055Z,285.71
2019-04-06T09:50:21.849Z,285.71
2019-04-06T09:51:50.574Z,285.77
2019-04-06T09:53:19.451Z,285.84
2019-04-06T09:54:49.050Z,286.02
2019-04-06T09:56:18.127Z,286.02
2019-04-06T09:57:47.928Z,286.09
2019-04-06T09:59:16.647Z,286.15
2019-04-06T10:01:01.607Z,286.21
2019-04-06T10:02:31.067Z,286.27
2019-04-06T10:03:59.765Z,286.21
2019-04-06T10:05:28.603Z,286.27
2019-04-06T10:06:57.765Z,286.4
2019-04-06T10:08:26.885Z,286.46
2019-04-06T10:09:55.846Z,286.52
2019-04-06T10:11:24.789Z,286.59
2019-04-06T10:12:53.521Z,286.59
2019-04-06T10:14:23.124Z,286.59
2019-04-06T10:15:52.359Z,286.65
2019-04-06T10:17:21.201Z,286.65
2019-04-06T10:18:50.071Z,286.71
2019-04-06T10:20:20.957Z,286.84
2019-04-06T10:24:09.927Z,286.77
2019-04-06T10:25:38.641Z,286.71
2019-04-06T10:27:07.850Z,286.77
2019-04-06T10:28:36.798Z,286.77
2019-04-06T10:30:05.525Z,286.9
2019-04-06T10:31:34.242Z,286.96
2019-04-06T10:33:04.720Z,287.09
2019-04-06T10:34:34.646Z,287.15
2019-04-06T10:36:03.358Z,287.21
2019-04-06T10:37:32.505Z,287.27
2019-04-06T10:39:02.137Z,287.34
2019-04-06T10:40:30.875Z,287.4
2019-04-06T10:42:00.876Z,287.46
2019-04-06T10:43:30.804Z,287.52
2019-04-06T10:44:59.602Z,287.46
2019-04-06T10:46:28.809Z,287.59
2019-04-06T10:47:58.053Z,287.59
2019-04-06T10:49:27.114Z,287.65
2019-04-06T10:50:56.483Z,287.65
2019-04-06T10:52:25.356Z,287.59
2019-04-06T10:53:54.159Z,287.65
2019-04-06T10:55:23.195Z,287.71
2019-04-06T10:56:52.212Z,287.84
2019-04-06T10:58:20.956Z,287.9
2019-04-06T11:00:00.567Z,287.9
2019-04-06T11:01:30.635Z,288.21
2019-04-06T11:02:59.357Z,288.27
2019-04-06T11:04:30.877Z,288.34
2019-04-06T11:06:00.235Z,288.4
2019-04-06T11:07:29.089Z,288.46
2019-04-06T11:08:58.327Z,288.4
2019-04-06T11:10:27.047Z,288.4
2019-04-06T11:11:56.202Z,288.52
2019-04-06T11:13:25.545Z,288.52
2019-04-06T11:14:54.490Z,288.52
2019-04-06T11:16:23.368Z,288.34
2019-04-06T11:17:52.094Z,288.34
2019-04-06T11:19:20.815Z,288.46
2019-04-06T11:20:51.389Z,288.71
2019-04-06T11:22:20.414Z,288.77
2019-04-06T11:23:50.176Z,288.77
2019-04-06T11:25:18.977Z,288.77
2019-04-06T11:26:47.699Z,288.71
2019-04-06T11:28:16.418Z,288.84
2019-04-06T11:29:45.484Z,288.84
2019-04-06T11:31:14.292Z,288.9
2019-04-06T11:32:42.977Z,288.9
2019-04-06T11:34:12.578Z,288.96
2019-04-06T11:35:42.309Z,289.21
2019-04-06T11:37:10.981Z,289.09
2019-04-06T11:38:39.911Z,289.21
2019-04-06T11:40:08.576Z,289.21
2019-04-06T11:41:38.416Z,289.21
2019-04-06T11:43:07.596Z,289.27
2019-04-06T11:44:38.241Z,289.27
2019-04-06T11:46:07.859Z,289.4
2019-04-06T11:47:37.947Z,289.27
2019-04-06T11:49:08.022Z,289.15
2019-04-06T11:50:36.737Z,289.21
2019-04-06T11:52:05.483Z,289.4
2019-04-06T11:53:34.175Z,289.46
2019-04-06T11:55:03.659Z,289.4
2019-04-06T11:56:32.977Z,289.46
2019-04-06T11:58:03.170Z,289.46
2019-04-06T11:59:32.630Z,289.46
2019-04-06T12:01:01.585Z,289.4
2019-04-06T12:02:31.295Z,289.34
2019-04-06T12:04:00.167Z,289.46
2019-04-06T12:05:30.018Z,289.52
2019-04-06T12:07:00.718Z,289.59
2019-04-06T12:08:29.617Z,289.65
2019-04-06T12:09:58.817Z,289.77
2019-04-06T12:11:27.617Z,289.84
2019-04-06T12:12:57.460Z,289.84
2019-04-06T12:14:27.217Z,289.9
2019-04-06T12:15:56.023Z,289.77
2019-04-06T12:17:25.122Z,289.77
2019-04-06T12:18:54.976Z,289.84
2019-04-06T12:20:24.415Z,289.9
2019-04-06T12:21:53.376Z,290.09
2019-04-06T12:23:22.176Z,290.15
2019-04-06T12:24:51.216Z,290.15
2019-04-06T12:26:20.616Z,290.27
2019-04-06T12:27:49.667Z,290.21
2019-04-06T12:29:18.416Z,290.34
2019-04-06T12:30:47.140Z,290.46
2019-04-06T12:32:16.258Z,290.4
2019-04-06T12:33:45.341Z,290.34
2019-04-06T12:35:15.241Z,290.27
2019-04-06T12:36:44.013Z,290.15
2019-04-06T12:38:13.123Z,290.21
2019-04-06T12:39:52.173Z,290.27
2019-04-06T12:41:21.635Z,290.27
2019-04-06T12:42:50.738Z,290.34
2019-04-06T12:44:19.778Z,290.4
2019-04-06T12:45:49.533Z,290.59
2019-04-06T12:47:18.295Z,290.59
2019-04-06T12:48:48.415Z,290.52
2019-04-06T12:50:17.304Z,290.59
2019-04-06T12:51:46.497Z,290.71
2019-04-06T12:53:15.827Z,290.9
2019-04-06T12:54:44.577Z,291.02
2019-04-06T12:56:13.699Z,291.21
2019-04-06T12:57:42.551Z,291.27
2019-04-06T12:59:12.095Z,291.4
2019-04-06T13:00:50.435Z,291.15
2019-04-06T13:02:21.332Z,290.96
2019-04-06T13:03:50.891Z,290.9
2019-04-06T13:05:21.452Z,290.84
2019-04-06T13:06:51.133Z,290.77
2019-04-06T13:08:19.859Z,290.59
2019-04-06T13:09:49.931Z,290.65
2019-04-06T13:11:19.822Z,290.46
2019-04-06T13:12:48.653Z,290.34
2019-04-06T13:14:18.336Z,290.4
2019-04-06T13:15:47.132Z,290.52
2019-04-06T13:17:16.541Z,290.52
2019-04-06T13:18:46.253Z,290.46
2019-04-06T13:20:15.855Z,290.27
2019-04-06T13:21:45.667Z,290.27
2019-04-06T13:23:14.963Z,290.21
2019-04-06T13:24:44.094Z,290.21
2019-04-06T13:26:12.978Z,290.21
2019-04-06T13:27:44.134Z,290.15
2019-04-06T13:29:13.695Z,290.15
2019-04-06T13:30:44.969Z,290.09
2019-04-06T13:32:28.655Z,290.09
2019-04-06T13:33:57.545Z,289.96
2019-04-06T13:35:27.487Z,289.9
2019-04-06T13:36:56.250Z,289.9
2019-04-06T13:38:25.147Z,289.96
2019-04-06T13:39:53.946Z,289.9
2019-04-06T13:41:22.867Z,289.84
2019-04-06T13:42:51.643Z,289.77
2019-04-06T13:44:20.897Z,289.77
2019-04-06T13:45:51.232Z,289.84
2019-04-06T13:47:19.937Z,289.84
2019-04-06T13:48:48.869Z,289.84
2019-04-06T13:50:18.017Z,290.09
2019-04-06T13:51:46.736Z,290.09
2019-04-06T13:53:15.788Z,290.09
2019-04-06T13:54:44.498Z,290.15
2019-04-06T13:56:14.346Z,290.15
2019-04-06T13:57:43.537Z,290.15
2019-04-06T13:59:13.217Z,290.21
2019-04-06T14:00:42.310Z,290.21
2019-04-06T14:02:11.620Z,290.52
2019-04-06T14:03:40.334Z,290.65
2019-04-06T14:05:10.595Z,290.65
2019-04-06T14:06:40.255Z,290.65
2019-04-06T14:08:08.973Z,290.84
2019-04-06T14:09:38.175Z,291.02
2019-04-06T14:11:06.974Z,291.09
2019-04-06T14:12:35.853Z,290.96
2019-04-06T14:14:04.573Z,290.84
2019-04-06T14:15:34.257Z,290.71
2019-04-06T14:17:03.222Z,290.71
2019-04-06T14:18:34.495Z,290.65
2019-04-06T14:20:03.800Z,290.46
2019-04-06T14:21:33.144Z,290.46
2019-04-06T14:23:03.374Z,290.46
2019-04-06T14:24:34.817Z,290.46
2019-04-06T14:26:03.699Z,290.4
2019-04-06T14:27:33.696Z,290.4
2019-04-06T14:29:02.816Z,290.34
2019-04-06T14:30:31.534Z,290.27
2019-04-06T14:32:01.614Z,290.27
2019-04-06T14:33:30.752Z,290.27
2019-04-06T14:35:01.939Z,290.46
2019-04-06T14:36:30.970Z,290.4
2019-04-06T14:38:01.390Z,290.34
2019-04-06T14:39:34.101Z,290.4
2019-04-06T14:41:05.632Z,290.34
2019-04-06T14:42:34.420Z,290.34
2019-04-06T14:44:03.227Z,290.21
2019-04-06T14:45:32.210Z,290.15
2019-04-06T14:47:01.059Z,290.09
2019-04-06T14:48:30.011Z,290.02
2019-04-06T14:49:59.762Z,289.96
2019-04-06T14:51:28.849Z,289.96
2019-04-06T14:52:58.191Z,290.02
2019-04-06T14:54:28.852Z,290.02
2019-04-06T14:55:57.875Z,290.09
2019-04-06T14:57:27.223Z,290.21
2019-04-06T14:58:56.105Z,290.4
2019-04-06T15:00:25.381Z,290.59
2019-04-06T15:01:58.125Z,290.52
2019-04-06T15:03:28.094Z,290.46
2019-04-06T15:04:57.667Z,290.4
2019-04-06T15:06:27.374Z,290.27
2019-04-06T15:07:56.970Z,290.27
2019-04-06T15:09:26.976Z,290.4
2019-04-06T15:10:56.738Z,290.46
2019-04-06T15:12:25.857Z,290.46
2019-04-06T15:13:55.190Z,290.4
2019-04-06T15:15:24.032Z,290.59
2019-04-06T15:16:54.841Z,290.59
2019-04-06T15:18:23.904Z,290.59
2019-04-06T15:19:54.980Z,290.4
2019-04-06T15:21:23.701Z,290.4
2019-04-06T15:22:52.820Z,290.46
2019-04-06T15:24:21.535Z,290.46
2019-04-06T15:25:51.859Z,290.46
2019-04-06T15:27:21.817Z,290.4
2019-04-06T15:28:51.066Z,290.46
2019-04-06T15:30:21.010Z,290.71
2019-04-06T15:31:51.218Z,290.84
2019-04-06T15:33:20.885Z,290.96
2019-04-06T15:34:49.775Z,291.02
2019-04-06T15:36:20.910Z,291.09
2019-04-06T15:37:50.175Z,291.21
2019-04-06T15:39:19.006Z,291.02
2019-04-06T15:40:47.694Z,290.96
2019-04-06T15:42:16.412Z,290.84
2019-04-06T15:43:45.613Z,290.65
2019-04-06T15:45:15.132Z,290.52
2019-04-06T15:46:43.855Z,290.46
2019-04-06T15:48:13.912Z,290.4
2019-04-06T15:49:42.973Z,290.4
2019-04-06T15:51:12.069Z,290.34
2019-04-06T15:52:41.047Z,290.21
2019-04-06T15:54:10.494Z,290.15
2019-04-06T15:55:39.545Z,290.09
2019-04-06T15:57:10.015Z,290.15
2019-04-06T15:58:39.613Z,290.09
2019-04-06T16:00:08.333Z,290.02
2019-04-06T16:01:37.282Z,289.96
2019-04-06T16:03:07.229Z,289.96
2019-04-06T16:04:36.574Z,289.84
2019-04-06T16:06:06.171Z,289.84
2019-04-06T16:07:35.182Z,289.77
2019-04-06T16:09:04.730Z,289.77
2019-04-06T16:10:33.532Z,289.77
2019-04-06T16:12:02.513Z,289.71
2019-04-06T16:13:32.116Z,289.71
2019-04-06T16:15:01.009Z,289.65
2019-04-06T16:16:30.491Z,289.65
2019-04-06T16:17:59.437Z,289.65
2019-04-06T16:19:28.180Z,289.59
2019-04-06T16:20:59.149Z,289.52
2019-04-06T16:22:28.412Z,289.52
2019-04-06T16:24:02.922Z,289.46
2019-04-06T16:25:32.732Z,289.4
2019-04-06T16:27:02.494Z,289.46
2019-04-06T16:28:34.356Z,289.46
2019-04-06T16:30:03.932Z,289.46
2019-04-06T16:31:33.292Z,289.46
2019-04-06T16:33:02.827Z,289.46
2019-04-06T16:34:34.274Z,289.46
2019-04-06T16:36:03.533Z,289.46
2019-04-06T16:37:34.093Z,289.4
2019-04-06T16:39:02.934Z,289.4
2019-04-06T16:40:31.613Z,289.34
2019-04-06T16:42:00.866Z,289.34
2019-04-06T16:43:32.078Z,289.27
2019-04-06T16:45:00.972Z,289.34
2019-04-06T16:46:31.481Z,289.34
2019-04-06T16:48:00.762Z,289.34
2019-04-06T16:49:29.537Z,289.34
2019-04-06T16:50:59.614Z,289.21
2019-04-06T16:52:28.814Z,289.15
2019-04-06T16:53:57.932Z,289.09
2019-04-06T16:55:26.905Z,289.09
2019-04-06T16:56:55.897Z,289.09
2019-04-06T16:58:25.296Z,289.15
2019-04-06T16:59:54.734Z,289.09
2019-04-06T17:01:23.538Z,289.09
2019-04-06T17:02:54.256Z,289.02
2019-04-06T17:04:22.975Z,289.02
2019-04-06T17:05:51.774Z,289.02
2019-04-06T17:07:21.431Z,289.02
2019-04-06T17:08:51.059Z,289.02
2019-04-06T17:10:22.015Z,288.96
2019-04-06T17:11:51.294Z,288.96
2019-04-06T17:13:20.094Z,288.96
2019-04-06T17:14:49.233Z,288.96
2019-04-06T17:16:18.058Z,288.96
2019-04-06T17:17:46.975Z,288.9
2019-04-06T17:19:16.645Z,288.84
2019-04-06T17:20:45.377Z,288.84
2019-04-06T17:22:14.261Z,288.77
2019-04-06T17:23:45.617Z,288.77
2019-04-06T17:25:15.295Z,288.77
2019-04-06T17:26:44.014Z,288.77
2019-04-06T17:28:13.059Z,288.71
2019-04-06T17:29:41.776Z,288.71
2019-04-06T17:31:10.894Z,288.65
2019-04-06T17:32:40.095Z,288.65
2019-04-06T17:34:08.979Z,288.65
2019-04-06T17:35:38.095Z,288.65
2019-04-06T17:37:07.695Z,288.59
2019-04-06T17:38:37.372Z,288.59
2019-04-06T17:40:06.731Z,288.59
2019-04-06T17:41:36.026Z,288.65
2019-04-06T17:43:06.493Z,288.59
2019-04-06T17:44:35.955Z,288.46
2019-04-06T17:46:04.651Z,288.52
2019-04-06T17:47:33.651Z,288.46
2019-04-06T17:49:02.414Z,288.46
2019-04-06T17:50:31.542Z,288.4
2019-04-06T17:52:00.870Z,288.34
2019-04-06T17:53:30.174Z,288.34
2019-04-06T17:55:00.236Z,288.27
2019-04-06T17:56:29.854Z,288.27
2019-04-06T17:57:59.242Z,288.27
2019-04-06T17:59:28.657Z,288.27
2019-04-06T18:00:57.384Z,288.21
2019-04-06T18:02:28.335Z,288.21
2019-04-06T18:03:59.886Z,288.15
2019-04-06T18:05:43.189Z,288.09
2019-04-06T18:08:06.102Z,288.02
2019-04-06T18:09:35.296Z,288.02
2019-04-06T18:11:04.099Z,288.02
2019-04-06T18:12:32.896Z,287.9
2019-04-06T18:14:02.098Z,287.9
2019-04-06T18:15:31.616Z,287.84
2019-04-06T18:17:01.139Z,287.9
2019-04-06T18:18:30.579Z,287.84
2019-04-06T18:20:00.512Z,287.77
2019-04-06T18:21:29.215Z,287.71
2019-04-06T18:23:00.402Z,287.65
2019-04-06T18:24:30.014Z,287.59
2019-04-06T18:25:58.899Z,287.52
2019-04-06T18:27:27.780Z,287.52
2019-04-06T18:28:56.736Z,287.52
2019-04-06T18:30:26.494Z,287.46
2019-04-06T18:31:55.377Z,287.4
2019-04-06T18:33:25.064Z,287.4
2019-04-06T18:34:53.776Z,287.34
2019-04-06T18:36:25.857Z,287.34
2019-04-06T18:37:54.645Z,287.27
2019-04-06T18:39:23.461Z,287.15
2019-04-06T18:40:53.642Z,286.9
2019-04-06T18:42:22.990Z,286.84
2019-04-06T18:43:51.703Z,286.59
2019-04-06T18:45:20.874Z,286.59
2019-04-06T18:46:50.893Z,286.34
2019-04-06T18:48:21.613Z,286.27
2019-04-06T18:49:51.213Z,285.9
2019-04-06T18:51:21.134Z,285.77
2019-04-06T18:52:49.855Z,285.59
2019-04-06T18:54:18.576Z,285.46
2019-04-06T18:55:47.294Z,285.21
2019-04-06T18:57:17.271Z,285.15
2019-04-06T18:58:46.973Z,285.15
2019-04-06T19:00:17.774Z,285.34
2019-04-06T19:01:46.572Z,285.15
2019-04-06T19:03:17.533Z,284.9
2019-04-06T19:04:47.620Z,284.9
2019-04-06T19:06:16.897Z,284.84
2019-04-06T19:07:45.613Z,284.84
2019-04-06T19:09:21.107Z,284.71
2019-04-06T19:10:55.919Z,284.71
2019-04-06T19:12:25.933Z,284.59
2019-04-06T19:13:55.524Z,284.52
2019-04-06T19:15:24.257Z,284.46
2019-04-06T19:16:54.574Z,284.34
2019-04-06T19:18:23.897Z,284.15
2019-04-06T19:19:53.810Z,283.96
2019-04-06T19:21:22.965Z,283.84
2019-04-06T19:22:54.753Z,283.71
2019-04-06T19:24:23.453Z,283.59
2019-04-06T19:25:53.450Z,283.65
2019-04-06T19:27:22.856Z,283.52
2019-04-06T19:28:52.672Z,283.46
2019-04-06T19:30:21.932Z,283.59
2019-04-06T19:31:52.645Z,283.46
2019-04-06T19:33:25.274Z,283.4
2019-04-06T19:34:54.334Z,283.34
2019-04-06T19:36:25.133Z,283.46
2019-04-06T19:37:54.229Z,283.46
2019-04-06T19:39:23.506Z,283.27
2019-04-06T19:40:53.024Z,283.15
2019-04-06T19:42:23.187Z,283.4
2019-04-06T19:43:52.335Z,283.34
2019-04-06T19:45:23.455Z,283.27
2019-04-06T19:46:53.215Z,282.96
2019-04-06T19:48:22.418Z,282.84
2019-04-06T19:49:52.979Z,282.77
2019-04-06T19:51:22.104Z,282.77
2019-04-06T19:52:52.012Z,282.84
2019-04-06T19:54:21.437Z,282.71
2019-04-06T19:55:50.943Z,282.65
2019-04-06T19:57:20.595Z,282.65
2019-04-06T19:58:50.814Z,282.71
2019-04-06T20:00:22.378Z,282.77
2019-04-06T20:01:51.890Z,282.65
2019-04-06T20:03:33.616Z,282.52